Time;durP1;ratioP1;P1;durP2;ratioP2;P2;SDS_P1;SDS_P2;PMS_P1;PMS_P2;Temp;Humidity;BMP_temperature;BMP_pressure;BME280_temperature;BME280_humidity;BME280_pressure;Samples;Min_cycle;Max_cycle;Signal;HPM_P1;HPM_P2
2023/08/24 00:00:41;;;;;;;2.90;1.40;;;22.10;92.00;;;;;;6128090;23;20013;-79
2023/08/24 00:03:08;;;;;;;2.03;1.30;;;22.10;92.00;;;;;;6127906;23;20348;-78
2023/08/24 00:05:38;;;;;;;2.33;1.30;;;22.10;92.00;;;;;;6128946;23;20002;-78
2023/08/24 00:08:08;;;;;;;3.05;1.40;;;21.90;91.90;;;;;;6127686;23;20369;-79
2023/08/24 00:10:34;;;;;;;2.33;1.30;;;22.10;92.00;;;;;;6129378;23;19998;-79
2023/08/24 00:13:00;;;;;;;2.92;1.40;;;22.10;91.90;;;;;;6129594;23;20001;-78
2023/08/24 00:15:25;;;;;;;2.50;1.35;;;22.00;91.90;;;;;;6128905;23;20014;-78
2023/08/24 00:17:51;;;;;;;1.98;1.38;;;22.10;92.00;;;;;;6127707;23;20512;-79
2023/08/24 00:20:17;;;;;;;3.03;1.60;;;22.00;92.00;;;;;;6126920;23;20006;-78
2023/08/24 00:22:42;;;;;;;2.33;1.35;;;22.10;92.00;;;;;;6127123;23;20010;-79
2023/08/24 00:25:08;;;;;;;3.63;1.50;;;22.10;92.00;;;;;;6128079;23;20002;-79
2023/08/24 00:27:35;;;;;;;2.25;1.30;;;22.10;92.00;;;;;;6128791;23;20006;-78
2023/08/24 00:30:03;;;;;;;2.15;1.40;;;22.00;91.90;;;;;;6128771;23;20069;-80
2023/08/24 00:32:28;;;;;;;2.53;1.42;;;22.10;92.00;;;;;;6127496;23;20029;-78
2023/08/24 00:34:55;;;;;;;2.15;1.20;;;22.10;92.00;;;;;;6126091;23;20017;-79
2023/08/24 00:37:21;;;;;;;2.45;1.48;;;22.10;92.10;;;;;;6127361;23;20013;-79
2023/08/24 00:39:46;;;;;;;2.40;1.48;;;22.00;92.00;;;;;;6126451;23;20009;-78
2023/08/24 00:42:14;;;;;;;2.15;1.42;;;22.10;92.00;;;;;;6128242;23;20001;-78
2023/08/24 00:44:40;;;;;;;2.80;1.30;;;22.00;91.90;;;;;;6127620;23;20006;-79
2023/08/24 00:47:07;;;;;;;2.40;1.50;;;22.20;91.90;;;;;;6127910;23;20037;-78
2023/08/24 00:49:33;;;;;;;2.47;1.55;;;22.20;91.90;;;;;;6126384;23;19998;-78
2023/08/24 00:51:58;;;;;;;2.88;1.48;;;22.20;91.90;;;;;;6127371;23;20437;-78
2023/08/24 00:54:25;;;;;;;2.55;1.30;;;22.20;91.90;;;;;;6127154;23;20005;-78
2023/08/24 00:56:50;;;;;;;2.72;1.40;;;22.20;91.90;;;;;;6125746;23;20006;-79
2023/08/24 00:59:16;;;;;;;3.08;1.55;;;22.20;91.90;;;;;;6127610;23;20398;-78
2023/08/24 01:01:44;;;;;;;2.83;1.50;;;22.10;91.80;;;;;;6125972;23;20093;-78
2023/08/24 01:04:10;;;;;;;2.40;1.30;;;22.20;91.90;;;;;;6126084;23;20006;-79
2023/08/24 01:06:36;;;;;;;2.83;1.60;;;22.20;91.90;;;;;;6127542;23;20006;-78
2023/08/24 01:09:02;;;;;;;2.88;1.50;;;22.10;91.90;;;;;;6125630;23;20002;-78
2023/08/24 01:11:54;;;;;;;1.70;1.25;;;22.10;91.90;;;;;;6126968;23;20006;-78
2023/08/24 01:14:28;;;;;;;1.95;1.23;;;22.10;92.00;;;;;;6126784;23;20002;-79
2023/08/24 01:16:58;;;;;;;1.98;1.38;;;22.10;92.10;;;;;;6125278;23;20348;-78
2023/08/24 01:19:43;;;;;;;2.77;1.43;;;22.10;92.10;;;;;;6127190;23;20089;-78
2023/08/24 01:22:32;;;;;;;2.47;1.40;;;22.10;92.10;;;;;;6125416;23;20005;-79
2023/08/24 01:25:13;;;;;;;3.05;1.48;;;22.00;92.00;;;;;;6126405;23;20018;-78
2023/08/24 01:27:40;;;;;;;2.58;1.40;;;22.10;92.00;;;;;;6126629;23;20323;-78
2023/08/24 01:30:07;;;;;;;1.90;1.33;;;22.10;92.10;;;;;;6126960;23;20001;-78
2023/08/24 01:32:34;;;;;;;2.92;1.40;;;22.00;92.10;;;;;;6125182;23;19998;-79
2023/08/24 01:35:07;;;;;;;2.88;1.50;;;22.00;92.10;;;;;;6124729;23;20071;-79
2023/08/24 01:37:34;;;;;;;1.60;1.10;;;22.00;92.10;;;;;;6124906;23;20009;-78
2023/08/24 01:40:14;;;;;;;1.98;1.42;;;22.00;92.10;;;;;;6126709;23;20002;-78
2023/08/24 01:42:51;;;;;;;2.83;1.70;;;22.00;92.00;;;;;;6124855;23;20009;-78
2023/08/24 01:45:18;;;;;;;2.90;1.60;;;22.00;92.00;;;;;;6124544;23;20010;-79
2023/08/24 01:47:47;;;;;;;3.63;1.58;;;22.00;92.00;;;;;;6124785;23;20010;-79
2023/08/24 01:50:13;;;;;;;2.20;1.40;;;22.00;92.00;;;;;;6124667;23;20002;-78
2023/08/24 01:52:39;;;;;;;3.05;1.58;;;22.00;92.00;;;;;;6124785;23;20006;-78
2023/08/24 01:55:05;;;;;;;3.35;1.52;;;22.00;92.00;;;;;;6125698;23;19998;-78
2023/08/24 01:57:31;;;;;;;2.40;1.30;;;22.00;92.00;;;;;;6126137;23;20006;-79
2023/08/24 01:59:56;;;;;;;3.45;1.63;;;22.00;92.00;;;;;;6126252;23;20076;-79
2023/08/24 02:02:24;;;;;;;2.72;1.60;;;22.00;92.00;;;;;;6126635;23;20006;-80
2023/08/24 02:04:50;;;;;;;2.22;1.50;;;22.00;92.00;;;;;;6126101;23;20080;-78
2023/08/24 02:07:16;;;;;;;2.90;1.60;;;22.00;92.10;;;;;;6124294;23;20048;-78
2023/08/24 02:09:41;;;;;;;2.78;1.48;;;22.00;92.10;;;;;;6127076;23;20002;-81
2023/08/24 02:12:07;;;;;;;2.42;1.50;;;22.10;92.10;;;;;;6132571;23;19998;-80
2023/08/24 02:14:32;;;;;;;2.45;1.50;;;22.10;92.10;;;;;;6129559;23;20053;-80
2023/08/24 02:16:58;;;;;;;1.80;1.40;;;22.10;92.10;;;;;;6130028;23;20337;-80
2023/08/24 02:19:23;;;;;;;3.55;1.50;;;22.10;92.00;;;;;;6129389;23;20002;-80
2023/08/24 02:21:49;;;;;;;2.35;1.48;;;22.10;92.00;;;;;;6129432;23;20002;-79
2023/08/24 02:24:14;;;;;;;2.75;1.58;;;22.10;92.00;;;;;;6129414;23;20006;-80
2023/08/24 02:26:40;;;;;;;1.95;1.48;;;22.10;91.90;;;;;;6131047;23;20480;-80
2023/08/24 02:29:06;;;;;;;3.47;1.60;;;22.10;91.90;;;;;;6130391;23;20026;-82
2023/08/24 02:31:31;;;;;;;2.15;1.40;;;22.10;91.90;;;;;;6131991;23;20032;-80
2023/08/24 02:33:57;;;;;;;2.42;1.48;;;22.10;91.90;;;;;;6130436;23;20002;-80
2023/08/24 02:36:22;;;;;;;2.47;1.55;;;22.10;91.90;;;;;;6129416;23;20002;-80
2023/08/24 02:38:48;;;;;;;3.35;1.73;;;22.10;92.00;;;;;;6129355;23;20009;-80
2023/08/24 02:41:14;;;;;;;2.83;1.60;;;22.10;92.00;;;;;;6129338;23;20072;-80
2023/08/24 02:43:40;;;;;;;2.40;1.40;;;22.10;92.00;;;;;;6128886;23;20153;-80
2023/08/24 02:46:08;;;;;;;2.58;1.60;;;22.10;92.10;;;;;;6129078;23;20006;-80
2023/08/24 02:48:34;;;;;;;2.47;1.40;;;22.00;92.10;;;;;;6129005;23;20017;-80
2023/08/24 02:51:02;;;;;;;2.58;1.50;;;22.00;92.10;;;;;;6128099;23;20029;-79
2023/08/24 02:53:28;;;;;;;2.95;1.70;;;22.00;92.10;;;;;;6130025;23;20018;-79
2023/08/24 02:55:55;;;;;;;2.70;1.42;;;22.00;92.10;;;;;;6128180;23;20006;-79
2023/08/24 02:58:20;;;;;;;2.97;1.50;;;22.00;92.10;;;;;;6130514;23;20006;-79
2023/08/24 03:00:46;;;;;;;2.80;1.80;;;21.90;92.10;;;;;;6127682;23;20013;-78
2023/08/24 03:03:13;;;;;;;3.80;1.70;;;22.00;92.10;;;;;;6127401;23;20006;-80
2023/08/24 03:05:38;;;;;;;1.83;1.35;;;22.00;92.10;;;;;;6127018;23;20010;-79
2023/08/24 03:08:04;;;;;;;2.35;1.55;;;22.00;92.10;;;;;;6126985;23;20052;-81
2023/08/24 03:10:30;;;;;;;3.35;1.80;;;22.00;92.10;;;;;;6129184;23;20093;-79
2023/08/24 03:12:56;;;;;;;2.45;1.60;;;22.00;92.10;;;;;;6127386;23;20009;-79
2023/08/24 03:15:21;;;;;;;2.42;1.60;;;22.00;92.10;;;;;;6128481;23;20010;-79
2023/08/24 03:17:47;;;;;;;2.35;1.60;;;21.90;92.10;;;;;;6126882;23;20033;-80
2023/08/24 03:20:13;;;;;;;2.45;1.50;;;22.00;92.20;;;;;;6126745;23;20089;-79
2023/08/24 03:22:40;;;;;;;3.65;1.77;;;21.90;92.10;;;;;;6127855;23;20445;-80
2023/08/24 03:25:06;;;;;;;2.83;1.80;;;21.90;92.10;;;;;;6129559;23;20006;-78
2023/08/24 03:27:32;;;;;;;2.85;1.65;;;21.90;92.10;;;;;;6128254;23;20435;-78
2023/08/24 03:29:58;;;;;;;3.22;1.90;;;22.00;92.10;;;;;;6127960;23;20010;-80
2023/08/24 03:32:24;;;;;;;2.85;1.60;;;21.90;92.10;;;;;;6129703;23;20440;-78
2023/08/24 03:34:49;;;;;;;2.80;1.65;;;21.90;92.10;;;;;;6127649;23;20031;-78
2023/08/24 03:37:15;;;;;;;2.80;1.63;;;22.00;92.10;;;;;;6127650;23;20002;-79
2023/08/24 03:39:41;;;;;;;3.25;1.80;;;22.00;92.20;;;;;;6128106;23;20009;-78
2023/08/24 03:42:07;;;;;;;2.30;1.60;;;22.00;92.20;;;;;;6127464;23;19998;-79
2023/08/24 03:44:33;;;;;;;2.55;1.55;;;22.00;92.10;;;;;;6126963;23;20341;-79
2023/08/24 03:46:59;;;;;;;2.65;1.65;;;22.00;92.10;;;;;;6127635;23;20013;-79
2023/08/24 03:49:26;;;;;;;2.55;1.60;;;22.00;92.10;;;;;;6127126;23;20092;-78
2023/08/24 03:51:51;;;;;;;3.80;1.80;;;22.00;92.00;;;;;;6127192;23;19998;-80
2023/08/24 03:54:17;;;;;;;3.13;1.60;;;22.00;92.00;;;;;;6126796;23;20012;-79
2023/08/24 03:56:42;;;;;;;2.85;1.67;;;22.00;92.00;;;;;;6126937;23;20008;-78
2023/08/24 03:59:08;;;;;;;3.97;2.10;;;22.00;92.00;;;;;;6126881;23;20010;-79
2023/08/24 04:01:33;;;;;;;2.33;1.60;;;22.00;91.90;;;;;;6127395;23;20006;-79
2023/08/24 04:03:59;;;;;;;3.05;1.60;;;22.00;91.90;;;;;;6128307;23;20030;-78
2023/08/24 04:06:24;;;;;;;3.63;1.75;;;22.10;92.00;;;;;;6125924;23;20028;-78
2023/08/24 04:08:50;;;;;;;2.53;1.65;;;22.00;92.00;;;;;;6126383;23;20137;-80
2023/08/24 04:11:15;;;;;;;3.58;1.90;;;22.10;92.00;;;;;;6128213;23;20069;-79
2023/08/24 04:13:41;;;;;;;2.58;1.80;;;22.00;92.00;;;;;;6128038;23;19998;-78
2023/08/24 04:16:06;;;;;;;3.58;1.73;;;22.00;92.00;;;;;;6126366;23;20014;-79
2023/08/24 04:18:32;;;;;;;3.17;1.90;;;22.00;92.10;;;;;;6128152;23;20456;-79
2023/08/24 04:20:57;;;;;;;2.88;1.77;;;22.00;92.10;;;;;;6127685;23;20005;-78
2023/08/24 04:23:26;;;;;;;3.88;1.77;;;22.00;92.10;;;;;;6127665;23;20035;-79
2023/08/24 04:25:53;;;;;;;2.30;1.55;;;22.00;92.10;;;;;;6127141;23;20077;-79
2023/08/24 04:28:19;;;;;;;2.47;1.75;;;21.90;92.10;;;;;;6126190;23;20032;-78
2023/08/24 04:30:52;;;;;;;3.10;2.00;;;22.00;92.10;;;;;;6127310;23;20081;-79
2023/08/24 04:33:18;;;;;;;3.45;2.00;;;21.90;92.10;;;;;;6124777;23;20352;-80
2023/08/24 04:35:47;;;;;;;3.30;1.70;;;21.90;92.10;;;;;;6123164;23;20002;-79
2023/08/24 04:38:12;;;;;;;2.85;1.73;;;22.00;92.20;;;;;;6123003;23;20010;-78
2023/08/24 04:41:07;;;;;;;2.67;1.70;;;21.90;92.20;;;;;;6121887;23;20010;-79
2023/08/24 04:43:32;;;;;;;2.72;1.80;;;21.90;92.20;;;;;;6119106;23;20006;-78
2023/08/24 04:45:58;;;;;;;2.55;1.55;;;21.90;92.20;;;;;;6123076;23;20014;-79
2023/08/24 04:48:25;;;;;;;2.40;1.75;;;21.90;92.20;;;;;;6122890;23;20089;-78
2023/08/24 04:50:53;;;;;;;3.53;2.05;;;21.90;92.20;;;;;;6123529;23;20337;-79
2023/08/24 04:53:20;;;;;;;3.30;1.95;;;21.90;92.20;;;;;;6123374;23;20002;-84
2023/08/24 04:55:46;;;;;;;3.33;1.95;;;21.90;92.20;;;;;;6121638;23;20010;-80
2023/08/24 04:58:13;;;;;;;4.10;2.17;;;21.90;92.20;;;;;;6123500;23;20062;-80
2023/08/24 05:00:39;;;;;;;3.50;1.80;;;21.90;92.10;;;;;;6124555;23;20002;-80
2023/08/24 05:03:05;;;;;;;3.67;2.20;;;21.90;92.10;;;;;;6122052;23;20013;-81
2023/08/24 05:05:35;;;;;;;3.75;2.10;;;21.90;92.20;;;;;;6123720;23;20033;-85
2023/08/24 05:08:02;;;;;;;3.75;2.20;;;21.90;92.10;;;;;;6120320;23;20480;-82
2023/08/24 05:10:33;;;;;;;3.30;1.90;;;21.80;92.10;;;;;;6121704;23;20010;-81
2023/08/24 05:28:47;;;;;;;3.67;2.00;;;22.20;92.10;;;;;;6006497;23;20104;-82
2023/08/24 05:31:12;;;;;;;3.60;1.95;;;23.00;92.20;;;;;;6047146;23;20005;-85
2023/08/24 05:37:26;;;;;;;3.75;1.77;;;22.00;91.90;;;;;;6041166;23;20027;-82
2023/08/24 05:47:17;;;;;;;3.72;2.20;;;22.00;92.00;;;;;;6034924;23;20026;-80
2023/08/24 06:15:26;;;;;;;;;;;;;;;;;;;;;
2023/08/24 06:40:11;;;;;;;;;;;;;;;;;;;;;
2023/08/24 07:05:50;;;;;;;4.55;2.60;;;22.10;91.50;;;;;;6121321;23;20032;-79
2023/08/24 07:08:52;;;;;;;7.97;3.35;;;22.10;91.40;;;;;;6123874;23;20407;-78
2023/08/24 07:35:33;;;;;;;7.45;4.10;;;22.40;90.50;;;;;;6141342;23;20033;-78
2023/08/24 07:37:59;;;;;;;5.90;4.00;;;22.50;90.50;;;;;;6129614;23;20030;-79
2023/08/24 07:40:26;;;;;;;6.63;4.25;;;22.50;90.50;;;;;;6103636;23;20018;-81
2023/08/24 07:42:55;;;;;;;6.55;3.90;;;22.50;90.50;;;;;;6103695;23;20002;-77
2023/08/24 07:45:21;;;;;;;6.05;3.97;;;22.50;90.40;;;;;;6127135;23;20005;-80
2023/08/24 07:47:47;;;;;;;8.23;4.35;;;22.50;90.40;;;;;;6126877;23;20065;-79
2023/08/24 07:50:12;;;;;;;6.53;4.03;;;22.60;90.40;;;;;;6102358;23;20001;-80
2023/08/24 07:52:38;;;;;;;6.95;3.50;;;22.60;90.40;;;;;;6102490;23;20001;-80
2023/08/24 07:55:06;;;;;;;6.57;3.95;;;22.60;90.40;;;;;;6102362;23;20060;-80
2023/08/24 07:57:33;;;;;;;5.78;3.83;;;22.60;90.30;;;;;;6129754;23;20006;-80
2023/08/24 07:59:59;;;;;;;6.70;3.85;;;22.60;90.40;;;;;;6102623;23;20456;-79
2023/08/24 08:02:24;;;;;;;5.50;3.60;;;22.60;90.30;;;;;;6100992;23;20071;-79
2023/08/24 08:04:50;;;;;;;7.00;3.85;;;22.70;90.30;;;;;;6101866;23;20033;-79
2023/08/24 08:07:15;;;;;;;6.00;3.58;;;22.70;90.30;;;;;;6127530;23;20073;-79
2023/08/24 08:09:42;;;;;;;6.70;3.67;;;22.70;90.30;;;;;;6100562;23;20412;-79
2023/08/24 08:12:08;;;;;;;5.40;3.33;;;22.70;90.20;;;;;;6125129;23;20040;-79
2023/08/24 08:14:33;;;;;;;4.97;3.30;;;22.80;90.20;;;;;;6126727;23;20077;-79
2023/08/24 08:16:59;;;;;;;5.50;3.50;;;22.80;90.10;;;;;;6100637;23;20429;-80
2023/08/24 08:19:28;;;;;;;5.97;3.55;;;22.80;90.10;;;;;;6100512;23;20013;-79
2023/08/24 08:21:53;;;;;;;5.30;3.20;;;22.90;90.10;;;;;;6100365;23;20013;-80
2023/08/24 08:24:19;;;;;;;6.07;3.33;;;22.90;90.00;;;;;;6125957;23;20021;-79
2023/08/24 08:26:44;;;;;;;4.57;2.80;;;22.90;90.00;;;;;;6100499;23;20005;-80
2023/08/24 08:29:10;;;;;;;5.93;3.22;;;22.90;89.90;;;;;;6126268;23;20002;-79
2023/08/24 08:31:35;;;;;;;5.68;3.30;;;23.00;89.90;;;;;;6100375;23;20002;-80
2023/08/24 08:34:01;;;;;;;4.97;3.20;;;23.00;89.80;;;;;;6099910;23;20342;-80
2023/08/24 08:36:26;;;;;;;4.93;3.10;;;23.00;89.80;;;;;;6124904;23;20013;-79
2023/08/24 08:38:52;;;;;;;5.55;3.33;;;23.00;89.70;;;;;;6129513;23;20092;-79
2023/08/24 08:41:22;;;;;;;5.40;3.05;;;23.00;89.70;;;;;;6129549;23;20007;-80
2023/08/24 08:43:48;;;;;;;4.35;2.90;;;23.10;89.70;;;;;;6155255;23;20002;-79
2023/08/24 08:46:15;;;;;;;4.07;2.78;;;23.10;89.80;;;;;;6131912;23;20059;-80
2023/08/24 08:48:41;;;;;;;4.95;3.15;;;23.00;89.90;;;;;;6159652;23;20005;-80
2023/08/24 08:51:08;;;;;;;4.88;3.10;;;22.90;90.10;;;;;;6132746;23;20503;-80
2023/08/24 08:53:33;;;;;;;5.10;2.83;;;22.90;90.20;;;;;;6158988;23;20092;-81
2023/08/24 08:56:03;;;;;;;4.53;2.67;;;22.80;90.30;;;;;;6133174;23;20424;-79
2023/08/24 08:58:31;;;;;;;5.88;3.13;;;22.90;90.40;;;;;;6159992;23;20044;-81
2023/08/24 09:00:59;;;;;;;4.90;2.97;;;22.80;90.40;;;;;;6159102;23;20010;-81
2023/08/24 09:03:28;;;;;;;4.22;2.60;;;22.80;90.40;;;;;;6159265;23;20016;-78
2023/08/24 09:05:53;;;;;;;3.65;2.63;;;22.80;90.50;;;;;;6159307;23;20037;-81
2023/08/24 09:08:20;;;;;;;4.60;2.80;;;22.80;90.50;;;;;;6161713;23;20009;-81
2023/08/24 09:10:45;;;;;;;4.72;2.90;;;22.90;90.50;;;;;;6160093;23;20440;-81
2023/08/24 09:13:12;;;;;;;4.68;2.80;;;22.80;90.40;;;;;;6133008;23;20008;-81
2023/08/24 09:15:37;;;;;;;4.22;2.75;;;22.90;90.40;;;;;;6159917;23;19998;-81
2023/08/24 09:18:03;;;;;;;4.82;2.70;;;22.90;90.40;;;;;;6133472;23;20028;-81
2023/08/24 09:20:29;;;;;;;4.97;2.85;;;22.90;90.40;;;;;;6132938;23;20037;-81
2023/08/24 09:22:57;;;;;;;3.97;2.67;;;22.90;90.40;;;;;;6159371;23;20009;-80
2023/08/24 09:25:23;;;;;;;4.75;2.75;;;22.90;90.30;;;;;;6132140;23;20072;-81
2023/08/24 09:28:04;;;;;;;4.07;2.67;;;23.00;90.30;;;;;;6158797;23;20085;-80
2023/08/24 09:30:31;;;;;;;4.65;3.00;;;23.00;90.30;;;;;;6132665;23;20028;-81
2023/08/24 09:33:04;;;;;;;4.38;2.90;;;23.00;90.30;;;;;;6132351;23;20001;-79
2023/08/24 09:35:37;;;;;;;4.78;2.78;;;22.90;90.20;;;;;;6131888;23;20016;-79
2023/08/24 09:38:18;;;;;;;3.83;2.42;;;23.00;90.30;;;;;;6158181;23;20025;-81
2023/08/24 09:40:50;;;;;;;;;;;23.00;90.30;;;;;;6132210;23;20012;-79
2023/08/24 09:43:16;;;;;;;4.00;2.50;;;23.00;90.30;;;;;;6131100;23;19911;-79
2023/08/24 09:45:52;;;;;;;4.75;3.08;;;23.10;90.20;;;;;;6156809;23;20010;-79
2023/08/24 09:48:18;;;;;;;3.90;2.67;;;23.10;90.20;;;;;;6131201;23;20009;-80
2023/08/24 09:50:49;;;;;;;4.20;2.67;;;23.10;90.20;;;;;;6157397;23;19997;-79
2023/08/24 09:53:20;;;;;;;3.80;2.60;;;23.10;90.10;;;;;;6156934;23;20038;-81
2023/08/24 09:55:58;;;;;;;3.80;2.47;;;23.20;90.10;;;;;;6130244;23;20005;-79
2023/08/24 09:58:24;;;;;;;3.65;2.47;;;23.20;90.10;;;;;;6130746;23;20032;-80
2023/08/24 10:00:51;;;;;;;4.60;2.80;;;23.20;90.10;;;;;;6130324;23;20036;-80
2023/08/24 10:03:22;;;;;;;3.50;2.35;;;23.20;90.10;;;;;;6129831;23;20010;-80
2023/08/24 10:05:51;;;;;;;3.22;2.35;;;23.10;90.10;;;;;;6129834;23;20005;-80
2023/08/24 10:08:22;;;;;;;4.25;2.58;;;23.20;90.10;;;;;;6155704;23;20053;-80
2023/08/24 10:10:52;;;;;;;3.92;2.40;;;23.20;90.10;;;;;;6130200;23;20495;-80
2023/08/24 10:13:26;;;;;;;3.65;2.53;;;23.20;90.10;;;;;;6129395;23;20001;-80
2023/08/24 10:15:53;;;;;;;3.78;2.45;;;23.20;90.10;;;;;;6129524;23;20008;-80
2023/08/24 10:18:20;;;;;;;3.88;2.67;;;23.20;90.10;;;;;;6129204;23;20005;-80
2023/08/24 10:20:46;;;;;;;3.80;2.63;;;23.20;90.10;;;;;;6156123;23;20009;-79
2023/08/24 10:23:15;;;;;;;3.80;2.25;;;23.20;90.10;;;;;;6129260;23;20002;-79
2023/08/24 10:25:42;;;;;;;4.18;2.65;;;23.20;90.20;;;;;;6155758;23;20005;-81
2023/08/24 10:28:08;;;;;;;3.70;2.45;;;23.10;90.20;;;;;;6129629;23;20096;-80
2023/08/24 10:30:36;;;;;;;3.78;2.38;;;23.10;90.20;;;;;;6129444;23;20076;-79
2023/08/24 10:33:02;;;;;;;3.30;2.20;;;23.10;90.20;;;;;;6129192;23;20349;-81
2023/08/24 10:35:28;;;;;;;4.28;2.40;;;23.10;90.20;;;;;;6129064;23;20014;-80
2023/08/24 10:37:57;;;;;;;3.83;2.53;;;23.10;90.30;;;;;;6156123;23;20006;-80
2023/08/24 10:40:35;;;;;;;3.92;2.40;;;23.10;90.30;;;;;;6129463;23;20343;-79
2023/08/24 10:43:07;;;;;;;4.05;2.50;;;23.10;90.30;;;;;;6129265;23;20436;-80
2023/08/24 10:45:58;;;;;;;3.33;2.22;;;23.20;90.30;;;;;;6154906;23;19997;-80
2023/08/24 10:48:29;;;;;;;3.95;2.40;;;23.20;90.30;;;;;;6129459;23;20033;-79
2023/08/24 10:51:13;;;;;;;3.80;2.40;;;23.20;90.30;;;;;;6155380;23;20575;-79
2023/08/24 10:53:39;;;;;;;3.53;2.28;;;23.20;90.30;;;;;;6128556;23;20001;-79
2023/08/24 10:56:16;;;;;;;3.25;2.13;;;23.20;90.30;;;;;;6129277;23;20005;-79
2023/08/24 10:58:43;;;;;;;2.92;2.10;;;23.20;90.30;;;;;;6155015;23;20009;-79
2023/08/24 11:01:18;;;;;;;3.80;2.30;;;23.20;90.30;;;;;;6128726;23;20016;-80
2023/08/24 11:03:51;;;;;;;3.95;2.50;;;23.20;90.20;;;;;;6128389;23;20005;-80
2023/08/24 11:06:25;;;;;;;3.75;2.20;;;23.20;90.20;;;;;;6128881;23;20013;-79
2023/08/24 11:09:09;;;;;;;3.58;2.17;;;23.20;90.20;;;;;;6155000;23;20001;-79
2023/08/24 11:11:34;;;;;;;3.40;2.30;;;23.20;90.20;;;;;;6128433;23;20472;-79
2023/08/24 11:14:22;;;;;;;3.08;2.17;;;23.20;90.20;;;;;;6154261;23;20032;-81
2023/08/24 11:16:48;;;;;;;3.10;2.08;;;23.20;90.20;;;;;;6128755;23;20055;-79
2023/08/24 11:19:15;;;;;;;3.42;2.30;;;23.20;90.20;;;;;;6128267;23;20009;-80
2023/08/24 11:21:42;;;;;;;4.00;2.25;;;23.20;90.20;;;;;;6154952;23;20001;-79
2023/08/24 11:24:15;;;;;;;3.47;2.30;;;23.30;90.20;;;;;;6128024;23;20458;-80
2023/08/24 11:26:46;;;;;;;3.33;2.42;;;23.30;90.20;;;;;;6154536;23;20002;-79
2023/08/24 11:29:12;;;;;;;3.30;2.20;;;23.30;90.20;;;;;;6128127;23;20006;-79
2023/08/24 11:31:39;;;;;;;3.63;2.40;;;23.30;90.10;;;;;;6128418;23;20001;-80
2023/08/24 11:34:05;;;;;;;3.85;2.25;;;23.30;90.10;;;;;;6154441;23;20084;-79
2023/08/24 11:36:31;;;;;;;3.03;1.90;;;23.30;90.10;;;;;;6128767;23;20461;-80
2023/08/24 11:38:58;;;;;;;3.22;2.00;;;23.30;90.10;;;;;;6124863;23;20009;-79
2023/08/24 11:41:24;;;;;;;3.63;2.20;;;23.30;90.00;;;;;;6099374;23;20010;-80
2023/08/24 11:43:59;;;;;;;3.00;2.00;;;23.30;90.00;;;;;;6100291;23;20006;-80
2023/08/24 11:46:25;;;;;;;3.38;2.10;;;23.30;90.00;;;;;;6100852;23;20014;-79
2023/08/24 11:48:50;;;;;;;3.03;2.10;;;23.30;90.00;;;;;;6100666;23;20046;-80
2023/08/24 11:51:17;;;;;;;3.20;2.00;;;23.30;90.00;;;;;;6126653;23;20002;-80
2023/08/24 11:53:44;;;;;;;3.20;2.10;;;23.40;90.10;;;;;;6100484;23;20421;-80
2023/08/24 11:56:11;;;;;;;2.88;2.10;;;23.30;90.20;;;;;;6126592;23;20541;-80
2023/08/24 11:58:43;;;;;;;3.67;2.28;;;23.30;90.20;;;;;;6102253;23;20145;-81
2023/08/24 12:01:11;;;;;;;2.83;2.03;;;23.20;90.20;;;;;;6103960;23;20017;-80
2023/08/24 12:03:38;;;;;;;3.05;2.20;;;23.20;90.20;;;;;;6129537;23;20006;-81
2023/08/24 12:06:11;;;;;;;2.95;2.00;;;23.20;90.30;;;;;;6129667;23;20033;-82
2023/08/24 12:08:41;;;;;;;3.55;2.15;;;23.20;90.40;;;;;;6104322;23;20017;-82
2023/08/24 12:11:16;;;;;;;3.47;2.28;;;23.20;90.40;;;;;;6100952;23;20013;-81
2023/08/24 12:13:59;;;;;;;3.88;2.53;;;23.20;90.50;;;;;;6129116;23;20005;-80
2023/08/24 12:16:25;;;;;;;3.38;2.17;;;23.10;90.50;;;;;;6103759;23;20512;-81
2023/08/24 12:18:59;;;;;;;3.22;1.90;;;23.10;90.50;;;;;;6106043;23;20002;-81
2023/08/24 12:21:26;;;;;;;2.60;1.90;;;23.10;90.60;;;;;;6131276;23;20010;-83
2023/08/24 12:24:14;;;;;;;3.00;2.17;;;23.10;90.60;;;;;;6104989;23;20100;-80
2023/08/24 12:26:39;;;;;;;4.15;2.22;;;23.00;90.60;;;;;;6103469;23;20064;-81
2023/08/24 12:29:06;;;;;;;3.15;2.10;;;23.00;90.60;;;;;;6102905;23;20001;-81
2023/08/24 12:31:32;;;;;;;2.92;1.90;;;23.00;90.60;;;;;;6105320;23;20002;-79
2023/08/24 12:34:03;;;;;;;2.85;2.00;;;23.00;90.70;;;;;;6102551;23;20097;-79
2023/08/24 12:36:29;;;;;;;3.70;2.20;;;23.00;90.70;;;;;;6123892;23;20441;-80
2023/08/24 12:38:55;;;;;;;2.75;1.88;;;23.00;90.80;;;;;;6127034;23;20012;-80
2023/08/24 12:41:20;;;;;;;2.58;1.90;;;23.00;90.80;;;;;;6126223;23;20069;-80
2023/08/24 12:43:46;;;;;;;3.63;2.10;;;23.00;90.80;;;;;;6128141;23;20009;-81
2023/08/24 12:46:11;;;;;;;3.25;2.05;;;23.00;90.80;;;;;;6126424;23;20010;-81
2023/08/24 12:48:37;;;;;;;2.55;1.90;;;23.00;90.80;;;;;;6125162;23;20310;-79
2023/08/24 12:51:02;;;;;;;3.25;2.13;;;23.00;90.80;;;;;;6126267;23;20452;-80
2023/08/24 12:53:28;;;;;;;3.17;2.13;;;23.00;90.80;;;;;;6126049;23;20184;-80
2023/08/24 12:55:53;;;;;;;2.97;2.15;;;23.00;90.80;;;;;;6125388;23;19998;-80
2023/08/24 12:58:19;;;;;;;2.95;2.00;;;23.00;90.80;;;;;;6125900;23;20036;-80
2023/08/24 13:00:45;;;;;;;2.85;1.90;;;23.00;90.70;;;;;;6126410;23;20021;-79
2023/08/24 13:03:11;;;;;;;2.90;1.98;;;23.00;90.60;;;;;;6126177;23;20010;-79
2023/08/24 13:05:36;;;;;;;3.45;2.10;;;23.00;90.60;;;;;;6125935;23;20500;-80
2023/08/24 13:08:02;;;;;;;2.92;1.80;;;23.00;90.60;;;;;;6124426;23;20433;-79
2023/08/24 13:10:28;;;;;;;3.50;2.05;;;23.00;90.60;;;;;;6124395;23;20053;-79
2023/08/24 13:12:53;;;;;;;2.92;2.08;;;23.00;90.60;;;;;;6124374;23;20088;-80
2023/08/24 13:15:20;;;;;;;3.05;2.10;;;23.00;90.60;;;;;;6124140;23;20311;-80
2023/08/24 13:17:46;;;;;;;2.88;1.90;;;23.00;90.60;;;;;;6124491;23;20009;-81
2023/08/24 13:20:11;;;;;;;2.90;2.03;;;23.00;90.60;;;;;;6124159;23;20480;-79
2023/08/24 13:22:37;;;;;;;2.90;2.00;;;23.00;90.60;;;;;;6125977;23;20147;-79
2023/08/24 13:25:03;;;;;;;2.63;1.98;;;23.00;90.60;;;;;;6123705;23;20337;-79
2023/08/24 13:27:28;;;;;;;3.60;2.30;;;23.00;90.60;;;;;;6124187;23;20033;-79
2023/08/24 13:29:56;;;;;;;2.65;1.80;;;23.00;90.70;;;;;;6124297;23;20032;-79
2023/08/24 13:32:22;;;;;;;2.50;1.80;;;23.00;90.70;;;;;;6125544;23;20060;-79
2023/08/24 13:34:47;;;;;;;2.47;1.88;;;22.90;90.80;;;;;;6124208;23;20045;-79
2023/08/24 13:37:13;;;;;;;2.70;1.88;;;22.90;90.80;;;;;;6100485;23;20002;-80
2023/08/24 13:39:38;;;;;;;3.13;1.98;;;22.90;90.80;;;;;;6100379;23;20017;-79
2023/08/24 13:42:04;;;;;;;3.90;2.30;;;22.90;90.90;;;;;;6126720;23;20002;-79
2023/08/24 13:44:29;;;;;;;2.40;1.70;;;22.90;90.90;;;;;;6126083;23;20006;-79
2023/08/24 13:46:55;;;;;;;3.83;1.85;;;22.80;90.90;;;;;;6099942;23;20104;-78
2023/08/24 13:49:21;;;;;;;2.30;1.83;;;22.80;91.00;;;;;;6100197;23;20017;-79
2023/08/24 13:51:47;;;;;;;3.22;1.92;;;22.80;91.00;;;;;;6100260;23;20009;-79
2023/08/24 13:54:20;;;;;;;3.00;2.00;;;22.80;91.00;;;;;;6099344;23;20452;-79
2023/08/24 13:56:47;;;;;;;2.80;1.98;;;22.80;91.00;;;;;;6100175;23;20013;-80
2023/08/24 13:59:14;;;;;;;2.78;2.03;;;22.80;91.00;;;;;;6100912;23;20002;-79
2023/08/24 14:01:40;;;;;;;2.72;1.77;;;22.80;91.00;;;;;;6126269;23;19998;-79
2023/08/24 14:04:06;;;;;;;2.65;1.90;;;22.80;91.10;;;;;;6125411;23;20002;-78
2023/08/24 14:06:37;;;;;;;3.33;2.10;;;22.80;91.10;;;;;;6125488;23;20006;-80
2023/08/24 14:09:03;;;;;;;3.13;2.00;;;22.80;91.10;;;;;;6099425;23;20002;-79
2023/08/24 14:11:29;;;;;;;2.97;1.90;;;22.80;91.10;;;;;;6125644;23;20418;-79
2023/08/24 14:13:55;;;;;;;3.05;2.20;;;22.80;91.10;;;;;;6125163;23;20013;-79
2023/08/24 14:16:20;;;;;;;3.25;1.95;;;22.70;91.20;;;;;;6099840;23;20026;-78
2023/08/24 14:18:46;;;;;;;2.53;1.90;;;22.80;91.20;;;;;;6100219;23;20337;-78
2023/08/24 14:21:12;;;;;;;2.75;1.95;;;22.70;91.20;;;;;;6099237;23;20006;-79
2023/08/24 14:23:37;;;;;;;2.58;2.00;;;22.70;91.20;;;;;;6098199;23;20088;-80
2023/08/24 14:26:03;;;;;;;3.15;2.00;;;22.70;91.20;;;;;;6124741;23;20065;-79
2023/08/24 14:28:54;;;;;;;3.35;2.10;;;22.70;91.20;;;;;;6124455;23;20081;-79
2023/08/24 14:31:29;;;;;;;2.25;1.60;;;22.80;91.20;;;;;;6124987;23;20025;-79
2023/08/24 14:33:56;;;;;;;3.00;2.00;;;22.80;91.20;;;;;;6125446;23;20009;-79
2023/08/24 14:36:22;;;;;;;3.13;1.95;;;22.80;91.20;;;;;;6117669;23;20041;-75
2023/08/24 14:38:49;;;;;;;2.70;1.90;;;22.80;91.20;;;;;;6123881;23;20006;-79
2023/08/24 14:41:15;;;;;;;2.88;1.92;;;22.80;91.10;;;;;;6125271;23;20340;-79
2023/08/24 14:43:42;;;;;;;3.13;2.00;;;22.80;91.10;;;;;;6123736;23;20051;-79
2023/08/24 14:46:08;;;;;;;2.30;1.70;;;22.80;91.10;;;;;;6123026;23;20052;-79
2023/08/24 14:48:34;;;;;;;2.92;2.00;;;22.80;91.10;;;;;;6125041;23;20425;-80
2023/08/24 14:51:00;;;;;;;2.65;1.70;;;22.80;91.20;;;;;;6123499;23;20013;-79
2023/08/24 14:53:26;;;;;;;2.83;1.90;;;22.80;91.10;;;;;;6124828;23;20029;-76
2023/08/24 14:55:53;;;;;;;3.10;1.90;;;22.80;91.20;;;;;;6125003;23;19998;-80